sensor_id;sensor_type;location;lat;lon;timestamp;P1;durP1;ratioP1;P2;durP2;ratioP2
71763;SDS011;59602;52.142;5.408;2023-07-31T00:01:12;0.83;;;0.10;;
71763;SDS011;59602;52.142;5.408;2023-07-31T00:03:54;0.65;;;0.10;;
71763;SDS011;59602;52.142;5.408;2023-07-31T00:06:20;0.85;;;0.20;;
71763;SDS011;59602;52.142;5.408;2023-07-31T00:08:47;1.50;;;0.20;;
71763;SDS011;59602;52.142;5.408;2023-07-31T00:11:14;3.63;;;0.30;;
71763;SDS011;59602;52.142;5.408;2023-07-31T00:13:45;2.13;;;0.20;;
71763;SDS011;59602;52.142;5.408;2023-07-31T00:16:11;3.20;;;0.20;;
71763;SDS011;59602;52.142;5.408;2023-07-31T00:18:38;1.35;;;0.50;;
71763;SDS011;59602;52.142;5.408;2023-07-31T00:21:05;1.05;;;0.22;;
71763;SDS011;59602;52.142;5.408;2023-07-31T00:23:31;1.60;;;0.20;;
71763;SDS011;59602;52.142;5.408;2023-07-31T00:26:01;0.87;;;0.20;;
71763;SDS011;59602;52.142;5.408;2023-07-31T00:28:48;2.65;;;0.30;;
71763;SDS011;59602;52.142;5.408;2023-07-31T00:31:34;0.98;;;0.30;;
71763;SDS011;59602;52.142;5.408;2023-07-31T00:34:19;1.40;;;0.30;;
71763;SDS011;59602;52.142;5.408;2023-07-31T00:37:52;1.50;;;0.32;;
71763;SDS011;59602;52.142;5.408;2023-07-31T00:40:50;1.47;;;0.50;;
71763;SDS011;59602;52.142;5.408;2023-07-31T00:44:35;3.83;;;0.80;;
71763;SDS011;59602;52.142;5.408;2023-07-31T00:47:05;7.38;;;1.00;;
71763;SDS011;59602;52.142;5.408;2023-07-31T00:50:37;5.60;;;1.38;;
71763;SDS011;59602;52.142;5.408;2023-07-31T00:54:11;6.55;;;1.20;;
71763;SDS011;59602;52.142;5.408;2023-07-31T00:56:41;9.47;;;1.90;;
71763;SDS011;59602;52.142;5.408;2023-07-31T00:59:11;12.10;;;2.00;;
71763;SDS011;59602;52.142;5.408;2023-07-31T01:01:37;10.43;;;2.28;;
71763;SDS011;59602;52.142;5.408;2023-07-31T01:04:04;11.05;;;2.08;;
71763;SDS011;59602;52.142;5.408;2023-07-31T01:06:48;11.15;;;2.40;;
71763;SDS011;59602;52.142;5.408;2023-07-31T01:09:37;11.33;;;3.13;;
71763;SDS011;59602;52.142;5.408;2023-07-31T01:12:13;12.02;;;2.47;;
71763;SDS011;59602;52.142;5.408;2023-07-31T01:14:50;13.80;;;2.90;;
71763;SDS011;59602;52.142;5.408;2023-07-31T01:17:18;12.10;;;2.67;;
71763;SDS011;59602;52.142;5.408;2023-07-31T01:19:48;10.07;;;2.10;;
71763;SDS011;59602;52.142;5.408;2023-07-31T01:27:44;5.10;;;1.17;;
71763;SDS011;59602;52.142;5.408;2023-07-31T01:30:41;3.47;;;0.80;;
71763;SDS011;59602;52.142;5.408;2023-07-31T01:33:19;4.15;;;1.00;;
71763;SDS011;59602;52.142;5.408;2023-07-31T01:36:09;4.13;;;1.20;;
71763;SDS011;59602;52.142;5.408;2023-07-31T01:38:52;4.13;;;0.75;;
71763;SDS011;59602;52.142;5.408;2023-07-31T01:44:22;2.53;;;0.60;;
71763;SDS011;59602;52.142;5.408;2023-07-31T01:46:49;5.32;;;1.05;;
71763;SDS011;59602;52.142;5.408;2023-07-31T01:52:20;5.43;;;1.08;;
71763;SDS011;59602;52.142;5.408;2023-07-31T01:55:17;7.53;;;1.45;;
71763;SDS011;59602;52.142;5.408;2023-07-31T01:58:00;13.65;;;2.90;;
71763;SDS011;59602;52.142;5.408;2023-07-31T02:00:27;10.98;;;2.42;;
71763;SDS011;59602;52.142;5.408;2023-07-31T02:03:44;11.37;;;2.53;;
71763;SDS011;59602;52.142;5.408;2023-07-31T02:06:33;12.07;;;2.83;;
71763;SDS011;59602;52.142;5.408;2023-07-31T02:09:06;10.07;;;2.58;;
71763;SDS011;59602;52.142;5.408;2023-07-31T02:11:49;8.63;;;2.10;;
71763;SDS011;59602;52.142;5.408;2023-07-31T02:17:53;9.97;;;2.03;;
71763;SDS011;59602;52.142;5.408;2023-07-31T02:20:19;7.65;;;2.55;;
71763;SDS011;59602;52.142;5.408;2023-07-31T02:22:50;13.43;;;2.85;;
71763;SDS011;59602;52.142;5.408;2023-07-31T02:25:38;10.57;;;2.50;;
71763;SDS011;59602;52.142;5.408;2023-07-31T02:28:35;11.50;;;3.15;;
71763;SDS011;59602;52.142;5.408;2023-07-31T02:31:29;10.33;;;2.20;;
71763;SDS011;59602;52.142;5.408;2023-07-31T02:33:58;9.30;;;2.50;;
71763;SDS011;59602;52.142;5.408;2023-07-31T02:36:56;9.98;;;2.10;;
71763;SDS011;59602;52.142;5.408;2023-07-31T02:39:25;10.95;;;2.50;;
71763;SDS011;59602;52.142;5.408;2023-07-31T02:41:55;8.98;;;2.50;;
71763;SDS011;59602;52.142;5.408;2023-07-31T02:44:23;11.03;;;2.70;;
71763;SDS011;59602;52.142;5.408;2023-07-31T02:46:58;14.02;;;2.70;;
71763;SDS011;59602;52.142;5.408;2023-07-31T02:49:54;10.65;;;2.38;;
71763;SDS011;59602;52.142;5.408;2023-07-31T02:53:15;8.63;;;2.20;;
71763;SDS011;59602;52.142;5.408;2023-07-31T02:56:02;13.45;;;2.35;;
71763;SDS011;59602;52.142;5.408;2023-07-31T02:58:45;11.33;;;2.47;;
71763;SDS011;59602;52.142;5.408;2023-07-31T03:01:33;14.93;;;2.88;;
71763;SDS011;59602;52.142;5.408;2023-07-31T03:04:14;10.75;;;2.55;;
71763;SDS011;59602;52.142;5.408;2023-07-31T03:06:52;12.05;;;2.35;;
71763;SDS011;59602;52.142;5.408;2023-07-31T03:09:23;15.68;;;2.63;;
71763;SDS011;59602;52.142;5.408;2023-07-31T03:11:52;12.17;;;2.67;;
71763;SDS011;59602;52.142;5.408;2023-07-31T03:14:28;16.55;;;3.10;;
71763;SDS011;59602;52.142;5.408;2023-07-31T03:17:08;11.48;;;2.60;;
71763;SDS011;59602;52.142;5.408;2023-07-31T03:19:36;11.32;;;2.75;;
71763;SDS011;59602;52.142;5.408;2023-07-31T03:22:03;14.43;;;3.10;;
71763;SDS011;59602;52.142;5.408;2023-07-31T03:24:30;12.10;;;2.77;;
71763;SDS011;59602;52.142;5.408;2023-07-31T03:27:00;12.98;;;2.78;;
71763;SDS011;59602;52.142;5.408;2023-07-31T03:29:50;13.38;;;3.25;;
71763;SDS011;59602;52.142;5.408;2023-07-31T03:32:52;14.07;;;2.72;;
71763;SDS011;59602;52.142;5.408;2023-07-31T03:35:19;15.93;;;3.47;;
71763;SDS011;59602;52.142;5.408;2023-07-31T03:37:48;13.37;;;2.73;;
71763;SDS011;59602;52.142;5.408;2023-07-31T03:40:17;15.57;;;3.63;;
71763;SDS011;59602;52.142;5.408;2023-07-31T03:45:40;11.38;;;2.92;;
71763;SDS011;59602;52.142;5.408;2023-07-31T03:48:07;17.20;;;3.08;;
71763;SDS011;59602;52.142;5.408;2023-07-31T03:51:05;19.27;;;3.50;;
71763;SDS011;59602;52.142;5.408;2023-07-31T03:56:28;19.35;;;3.38;;
71763;SDS011;59602;52.142;5.408;2023-07-31T03:59:16;11.50;;;3.28;;
71763;SDS011;59602;52.142;5.408;2023-07-31T04:02:20;16.15;;;3.22;;
71763;SDS011;59602;52.142;5.408;2023-07-31T04:05:17;14.63;;;3.80;;
71763;SDS011;59602;52.142;5.408;2023-07-31T04:12:02;9.30;;;3.20;;
71763;SDS011;59602;52.142;5.408;2023-07-31T04:17:42;12.55;;;3.13;;
71763;SDS011;59602;52.142;5.408;2023-07-31T04:20:15;10.83;;;2.80;;
71763;SDS011;59602;52.142;5.408;2023-07-31T04:40:35;13.13;;;3.15;;
71763;SDS011;59602;52.142;5.408;2023-07-31T04:43:15;11.70;;;3.55;;
71763;SDS011;59602;52.142;5.408;2023-07-31T04:49:31;13.57;;;2.97;;
71763;SDS011;59602;52.142;5.408;2023-07-31T04:52:19;10.90;;;2.97;;
71763;SDS011;59602;52.142;5.408;2023-07-31T04:54:52;11.57;;;3.13;;
71763;SDS011;59602;52.142;5.408;2023-07-31T04:57:25;13.10;;;2.90;;
71763;SDS011;59602;52.142;5.408;2023-07-31T04:59:52;12.73;;;3.17;;
71763;SDS011;59602;52.142;5.408;2023-07-31T05:02:22;7.88;;;2.72;;
71763;SDS011;59602;52.142;5.408;2023-07-31T05:05:05;11.30;;;2.67;;
71763;SDS011;59602;52.142;5.408;2023-07-31T05:07:32;12.95;;;2.72;;
71763;SDS011;59602;52.142;5.408;2023-07-31T05:10:29;11.02;;;2.78;;
71763;SDS011;59602;52.142;5.408;2023-07-31T05:12:55;7.43;;;2.38;;
71763;SDS011;59602;52.142;5.408;2023-07-31T05:15:22;9.70;;;2.95;;
71763;SDS011;59602;52.142;5.408;2023-07-31T05:17:55;7.27;;;2.43;;
71763;SDS011;59602;52.142;5.408;2023-07-31T05:20:22;9.48;;;2.50;;
71763;SDS011;59602;52.142;5.408;2023-07-31T05:23:14;8.07;;;2.00;;
71763;SDS011;59602;52.142;5.408;2023-07-31T05:26:04;8.50;;;2.30;;
71763;SDS011;59602;52.142;5.408;2023-07-31T05:28:33;7.85;;;2.30;;
71763;SDS011;59602;52.142;5.408;2023-07-31T05:31:04;8.57;;;2.80;;
71763;SDS011;59602;52.142;5.408;2023-07-31T05:33:45;9.02;;;2.65;;
71763;SDS011;59602;52.142;5.408;2023-07-31T05:36:14;7.43;;;2.50;;
71763;SDS011;59602;52.142;5.408;2023-07-31T05:38:40;7.20;;;2.17;;
71763;SDS011;59602;52.142;5.408;2023-07-31T05:41:12;7.00;;;2.15;;
71763;SDS011;59602;52.142;5.408;2023-07-31T05:43:41;7.33;;;1.97;;
71763;SDS011;59602;52.142;5.408;2023-07-31T05:46:09;6.15;;;1.48;;
71763;SDS011;59602;52.142;5.408;2023-07-31T05:49:18;6.32;;;1.50;;
71763;SDS011;59602;52.142;5.408;2023-07-31T05:51:46;3.55;;;1.10;;
71763;SDS011;59602;52.142;5.408;2023-07-31T05:54:19;4.20;;;1.48;;
71763;SDS011;59602;52.142;5.408;2023-07-31T05:57:31;7.50;;;1.70;;
71763;SDS011;59602;52.142;5.408;2023-07-31T06:00:14;3.80;;;1.67;;
71763;SDS011;59602;52.142;5.408;2023-07-31T06:03:23;4.93;;;1.52;;
71763;SDS011;59602;52.142;5.408;2023-07-31T06:06:44;5.38;;;1.90;;
71763;SDS011;59602;52.142;5.408;2023-07-31T06:09:51;5.78;;;1.67;;
71763;SDS011;59602;52.142;5.408;2023-07-31T06:12:42;4.53;;;1.47;;
71763;SDS011;59602;52.142;5.408;2023-07-31T06:15:25;5.82;;;1.90;;
71763;SDS011;59602;52.142;5.408;2023-07-31T06:18:08;5.32;;;1.88;;
71763;SDS011;59602;52.142;5.408;2023-07-31T06:20:57;4.90;;;1.50;;
71763;SDS011;59602;52.142;5.408;2023-07-31T06:23:54;5.72;;;1.58;;
71763;SDS011;59602;52.142;5.408;2023-07-31T06:26:52;8.03;;;1.93;;
71763;SDS011;59602;52.142;5.408;2023-07-31T06:29:20;6.68;;;1.67;;
71763;SDS011;59602;52.142;5.408;2023-07-31T06:35:07;5.03;;;1.58;;
71763;SDS011;59602;52.142;5.408;2023-07-31T06:37:44;5.45;;;1.60;;
71763;SDS011;59602;52.142;5.408;2023-07-31T06:40:33;7.70;;;1.90;;
71763;SDS011;59602;52.142;5.408;2023-07-31T06:43:58;4.70;;;1.25;;
71763;SDS011;59602;52.142;5.408;2023-07-31T06:47:01;4.60;;;1.42;;
71763;SDS011;59602;52.142;5.408;2023-07-31T06:50:11;5.32;;;1.45;;
71763;SDS011;59602;52.142;5.408;2023-07-31T06:52:40;5.18;;;1.30;;
71763;SDS011;59602;52.142;5.408;2023-07-31T06:55:26;4.50;;;0.83;;
71763;SDS011;59602;52.142;5.408;2023-07-31T07:00:23;3.10;;;0.90;;
71763;SDS011;59602;52.142;5.408;2023-07-31T07:03:14;2.63;;;1.00;;
71763;SDS011;59602;52.142;5.408;2023-07-31T07:06:12;3.30;;;0.80;;
71763;SDS011;59602;52.142;5.408;2023-07-31T07:12:30;3.63;;;1.20;;
71763;SDS011;59602;52.142;5.408;2023-07-31T07:15:29;5.13;;;1.20;;
71763;SDS011;59602;52.142;5.408;2023-07-31T07:23:31;2.93;;;1.10;;
71763;SDS011;59602;52.142;5.408;2023-07-31T07:26:00;5.85;;;1.38;;
71763;SDS011;59602;52.142;5.408;2023-07-31T07:28:45;2.63;;;1.00;;
71763;SDS011;59602;52.142;5.408;2023-07-31T07:31:39;3.17;;;1.17;;
71763;SDS011;59602;52.142;5.408;2023-07-31T07:34:59;4.10;;;1.08;;
71763;SDS011;59602;52.142;5.408;2023-07-31T07:37:31;3.50;;;1.30;;
71763;SDS011;59602;52.142;5.408;2023-07-31T07:40:55;2.92;;;1.17;;
71763;SDS011;59602;52.142;5.408;2023-07-31T07:43:22;2.92;;;1.00;;
71763;SDS011;59602;52.142;5.408;2023-07-31T07:45:56;2.75;;;1.02;;
71763;SDS011;59602;52.142;5.408;2023-07-31T07:49:15;3.58;;;1.27;;
71763;SDS011;59602;52.142;5.408;2023-07-31T07:53:16;2.77;;;1.20;;
71763;SDS011;59602;52.142;5.408;2023-07-31T07:56:18;2.88;;;1.20;;
71763;SDS011;59602;52.142;5.408;2023-07-31T07:59:14;3.65;;;0.98;;
71763;SDS011;59602;52.142;5.408;2023-07-31T08:02:17;4.05;;;1.40;;
71763;SDS011;59602;52.142;5.408;2023-07-31T08:05:19;2.15;;;0.85;;
71763;SDS011;59602;52.142;5.408;2023-07-31T08:08:14;2.60;;;0.67;;
71763;SDS011;59602;52.142;5.408;2023-07-31T08:11:47;3.30;;;0.98;;
71763;SDS011;59602;52.142;5.408;2023-07-31T08:14:46;3.00;;;1.10;;
71763;SDS011;59602;52.142;5.408;2023-07-31T08:17:38;3.90;;;0.93;;
71763;SDS011;59602;52.142;5.408;2023-07-31T08:20:32;1.83;;;0.82;;
71763;SDS011;59602;52.142;5.408;2023-07-31T08:23:02;2.43;;;0.67;;
71763;SDS011;59602;52.142;5.408;2023-07-31T08:28:51;2.95;;;0.70;;
71763;SDS011;59602;52.142;5.408;2023-07-31T08:32:01;1.92;;;0.40;;
71763;SDS011;59602;52.142;5.408;2023-07-31T08:35:07;1.15;;;0.40;;
71763;SDS011;59602;52.142;5.408;2023-07-31T08:37:57;3.53;;;0.40;;
71763;SDS011;59602;52.142;5.408;2023-07-31T08:41:17;1.33;;;0.30;;
71763;SDS011;59602;52.142;5.408;2023-07-31T08:44:22;3.85;;;0.50;;
71763;SDS011;59602;52.142;5.408;2023-07-31T08:50:35;2.55;;;0.40;;
71763;SDS011;59602;52.142;5.408;2023-07-31T08:53:49;1.40;;;0.40;;
71763;SDS011;59602;52.142;5.408;2023-07-31T08:56:24;0.80;;;0.30;;
71763;SDS011;59602;52.142;5.408;2023-07-31T08:59:37;1.13;;;0.40;;
71763;SDS011;59602;52.142;5.408;2023-07-31T09:02:19;1.65;;;0.30;;
71763;SDS011;59602;52.142;5.408;2023-07-31T09:05:18;2.25;;;0.40;;
71763;SDS011;59602;52.142;5.408;2023-07-31T09:07:48;2.20;;;0.40;;
71763;SDS011;59602;52.142;5.408;2023-07-31T09:10:32;1.15;;;0.30;;
71763;SDS011;59602;52.142;5.408;2023-07-31T09:13:01;1.25;;;0.52;;
71763;SDS011;59602;52.142;5.408;2023-07-31T09:15:57;1.30;;;0.40;;
71763;SDS011;59602;52.142;5.408;2023-07-31T09:21:47;1.03;;;0.30;;
71763;SDS011;59602;52.142;5.408;2023-07-31T09:24:37;1.38;;;0.50;;
71763;SDS011;59602;52.142;5.408;2023-07-31T09:27:05;1.85;;;0.40;;
71763;SDS011;59602;52.142;5.408;2023-07-31T09:29:32;1.98;;;0.50;;
71763;SDS011;59602;52.142;5.408;2023-07-31T09:32:28;1.33;;;0.60;;
71763;SDS011;59602;52.142;5.408;2023-07-31T09:35:41;1.70;;;0.63;;
71763;SDS011;59602;52.142;5.408;2023-07-31T09:38:39;2.47;;;0.60;;
71763;SDS011;59602;52.142;5.408;2023-07-31T09:41:08;2.15;;;0.60;;
71763;SDS011;59602;52.142;5.408;2023-07-31T09:44:15;1.67;;;0.85;;
71763;SDS011;59602;52.142;5.408;2023-07-31T09:47:46;4.28;;;0.70;;
71763;SDS011;59602;52.142;5.408;2023-07-31T09:50:17;2.03;;;0.60;;
71763;SDS011;59602;52.142;5.408;2023-07-31T10:03:20;2.67;;;0.60;;
71763;SDS011;59602;52.142;5.408;2023-07-31T10:05:49;1.40;;;0.50;;
71763;SDS011;59602;52.142;5.408;2023-07-31T10:08:32;2.05;;;0.80;;
71763;SDS011;59602;52.142;5.408;2023-07-31T10:11:08;2.03;;;0.60;;
71763;SDS011;59602;52.142;5.408;2023-07-31T10:18:50;3.37;;;1.13;;
71763;SDS011;59602;52.142;5.408;2023-07-31T10:22:05;3.55;;;1.05;;
71763;SDS011;59602;52.142;5.408;2023-07-31T10:29:20;5.10;;;1.52;;
71763;SDS011;59602;52.142;5.408;2023-07-31T10:31:50;2.85;;;1.30;;
71763;SDS011;59602;52.142;5.408;2023-07-31T10:34:46;3.93;;;1.50;;
71763;SDS011;59602;52.142;5.408;2023-07-31T10:37:29;3.70;;;1.60;;
71763;SDS011;59602;52.142;5.408;2023-07-31T10:40:27;4.45;;;2.00;;
71763;SDS011;59602;52.142;5.408;2023-07-31T10:43:05;3.97;;;1.77;;
71763;SDS011;59602;52.142;5.408;2023-07-31T10:45:54;3.55;;;1.70;;
71763;SDS011;59602;52.142;5.408;2023-07-31T10:50:55;4.03;;;2.00;;
71763;SDS011;59602;52.142;5.408;2023-07-31T10:53:44;3.13;;;1.88;;
71763;SDS011;59602;52.142;5.408;2023-07-31T10:59:38;3.88;;;1.77;;
71763;SDS011;59602;52.142;5.408;2023-07-31T11:02:05;6.10;;;2.07;;
71763;SDS011;59602;52.142;5.408;2023-07-31T11:05:05;5.40;;;1.70;;
71763;SDS011;59602;52.142;5.408;2023-07-31T11:07:51;4.38;;;1.85;;
71763;SDS011;59602;52.142;5.408;2023-07-31T11:11:06;3.55;;;1.70;;
71763;SDS011;59602;52.142;5.408;2023-07-31T11:13:47;2.95;;;1.40;;
71763;SDS011;59602;52.142;5.408;2023-07-31T11:16:16;3.07;;;1.23;;
71763;SDS011;59602;52.142;5.408;2023-07-31T11:19:21;2.92;;;1.58;;
71763;SDS011;59602;52.142;5.408;2023-07-31T11:21:55;2.83;;;1.20;;
71763;SDS011;59602;52.142;5.408;2023-07-31T11:24:28;2.53;;;1.10;;
71763;SDS011;59602;52.142;5.408;2023-07-31T11:26:59;2.70;;;0.93;;
71763;SDS011;59602;52.142;5.408;2023-07-31T11:29:29;3.33;;;1.10;;
71763;SDS011;59602;52.142;5.408;2023-07-31T11:36:41;2.08;;;0.80;;
71763;SDS011;59602;52.142;5.408;2023-07-31T11:39:31;3.15;;;1.17;;
71763;SDS011;59602;52.142;5.408;2023-07-31T11:43:13;2.40;;;0.85;;
71763;SDS011;59602;52.142;5.408;2023-07-31T11:45:46;3.80;;;0.77;;
71763;SDS011;59602;52.142;5.408;2023-07-31T11:48:20;2.58;;;0.80;;
71763;SDS011;59602;52.142;5.408;2023-07-31T11:50:57;1.70;;;1.05;;
71763;SDS011;59602;52.142;5.408;2023-07-31T11:53:40;2.30;;;1.15;;
71763;SDS011;59602;52.142;5.408;2023-07-31T11:56:32;2.38;;;1.15;;
71763;SDS011;59602;52.142;5.408;2023-07-31T11:59:19;2.47;;;1.13;;
71763;SDS011;59602;52.142;5.408;2023-07-31T12:01:46;3.40;;;1.10;;
71763;SDS011;59602;52.142;5.408;2023-07-31T12:04:16;2.53;;;1.08;;
71763;SDS011;59602;52.142;5.408;2023-07-31T12:06:45;4.65;;;1.70;;
71763;SDS011;59602;52.142;5.408;2023-07-31T12:09:15;4.18;;;1.50;;
71763;SDS011;59602;52.142;5.408;2023-07-31T12:11:42;3.37;;;1.47;;
71763;SDS011;59602;52.142;5.408;2023-07-31T12:14:22;3.35;;;1.55;;
71763;SDS011;59602;52.142;5.408;2023-07-31T12:17:04;4.18;;;1.58;;
71763;SDS011;59602;52.142;5.408;2023-07-31T12:19:32;3.95;;;1.55;;
71763;SDS011;59602;52.142;5.408;2023-07-31T12:22:34;3.45;;;1.10;;
71763;SDS011;59602;52.142;5.408;2023-07-31T12:25:06;2.40;;;1.13;;
71763;SDS011;59602;52.142;5.408;2023-07-31T12:27:50;5.32;;;1.35;;
71763;SDS011;59602;52.142;5.408;2023-07-31T12:33:19;2.25;;;1.20;;
71763;SDS011;59602;52.142;5.408;2023-07-31T12:36:03;2.55;;;1.02;;
71763;SDS011;59602;52.142;5.408;2023-07-31T12:38:47;2.03;;;0.90;;
71763;SDS011;59602;52.142;5.408;2023-07-31T12:41:17;2.42;;;1.33;;
71763;SDS011;59602;52.142;5.408;2023-07-31T13:16:02;3.00;;;1.20;;
71763;SDS011;59602;52.142;5.408;2023-07-31T13:18:29;2.78;;;1.40;;
71763;SDS011;59602;52.142;5.408;2023-07-31T13:20:56;3.38;;;1.63;;
71763;SDS011;59602;52.142;5.408;2023-07-31T13:23:22;3.10;;;2.10;;
71763;SDS011;59602;52.142;5.408;2023-07-31T13:25:49;3.92;;;2.10;;
71763;SDS011;59602;52.142;5.408;2023-07-31T13:28:16;3.85;;;1.60;;
71763;SDS011;59602;52.142;5.408;2023-07-31T13:30:43;3.22;;;1.83;;
71763;SDS011;59602;52.142;5.408;2023-07-31T13:42:18;2.72;;;1.15;;
71763;SDS011;59602;52.142;5.408;2023-07-31T13:46:01;3.90;;;1.67;;
71763;SDS011;59602;52.142;5.408;2023-07-31T13:48:58;3.05;;;1.60;;
71763;SDS011;59602;52.142;5.408;2023-07-31T13:52:05;3.75;;;1.40;;
71763;SDS011;59602;52.142;5.408;2023-07-31T13:55:00;3.57;;;1.07;;
71763;SDS011;59602;52.142;5.408;2023-07-31T13:57:53;3.00;;;0.80;;
71763;SDS011;59602;52.142;5.408;2023-07-31T14:09:03;1.92;;;0.68;;
71763;SDS011;59602;52.142;5.408;2023-07-31T14:12:13;2.30;;;0.40;;
71763;SDS011;59602;52.142;5.408;2023-07-31T14:15:00;2.15;;;0.68;;
71763;SDS011;59602;52.142;5.408;2023-07-31T14:17:47;2.53;;;0.50;;
71763;SDS011;59602;52.142;5.408;2023-07-31T14:32:10;3.15;;;1.90;;
71763;SDS011;59602;52.142;5.408;2023-07-31T14:38:23;4.90;;;2.72;;
71763;SDS011;59602;52.142;5.408;2023-07-31T14:42:06;4.18;;;2.80;;
71763;SDS011;59602;52.142;5.408;2023-07-31T14:44:33;4.87;;;3.10;;
71763;SDS011;59602;52.142;5.408;2023-07-31T14:47:05;5.03;;;3.13;;
71763;SDS011;59602;52.142;5.408;2023-07-31T14:50:16;4.50;;;3.25;;
71763;SDS011;59602;52.142;5.408;2023-07-31T14:52:46;6.32;;;3.72;;
71763;SDS011;59602;52.142;5.408;2023-07-31T14:55:17;5.00;;;3.20;;
71763;SDS011;59602;52.142;5.408;2023-07-31T14:57:44;5.40;;;3.20;;
71763;SDS011;59602;52.142;5.408;2023-07-31T15:00:37;5.03;;;2.95;;
71763;SDS011;59602;52.142;5.408;2023-07-31T15:03:09;4.00;;;2.50;;
71763;SDS011;59602;52.142;5.408;2023-07-31T15:05:36;3.72;;;2.47;;
71763;SDS011;59602;52.142;5.408;2023-07-31T15:08:05;3.53;;;2.17;;
71763;SDS011;59602;52.142;5.408;2023-07-31T15:10:37;4.43;;;2.10;;
71763;SDS011;59602;52.142;5.408;2023-07-31T15:13:29;4.03;;;1.63;;
71763;SDS011;59602;52.142;5.408;2023-07-31T15:16:05;2.90;;;1.48;;
71763;SDS011;59602;52.142;5.408;2023-07-31T15:18:45;5.10;;;2.05;;
71763;SDS011;59602;52.142;5.408;2023-07-31T15:21:40;3.60;;;1.75;;
71763;SDS011;59602;52.142;5.408;2023-07-31T15:24:10;4.40;;;1.87;;
71763;SDS011;59602;52.142;5.408;2023-07-31T15:27:19;2.33;;;1.58;;
71763;SDS011;59602;52.142;5.408;2023-07-31T15:30:11;3.92;;;1.70;;
71763;SDS011;59602;52.142;5.408;2023-07-31T15:32:38;2.88;;;1.85;;
71763;SDS011;59602;52.142;5.408;2023-07-31T15:35:48;2.97;;;1.70;;
71763;SDS011;59602;52.142;5.408;2023-07-31T15:39:00;3.00;;;1.70;;
71763;SDS011;59602;52.142;5.408;2023-07-31T15:41:44;2.90;;;2.03;;
71763;SDS011;59602;52.142;5.408;2023-07-31T15:44:12;3.33;;;1.60;;
71763;SDS011;59602;52.142;5.408;2023-07-31T15:49:41;3.42;;;1.65;;
71763;SDS011;59602;52.142;5.408;2023-07-31T15:52:07;2.80;;;1.70;;
71763;SDS011;59602;52.142;5.408;2023-07-31T15:54:34;3.90;;;1.33;;
71763;SDS011;59602;52.142;5.408;2023-07-31T15:57:01;4.15;;;1.40;;
71763;SDS011;59602;52.142;5.408;2023-07-31T15:59:27;2.10;;;1.00;;
71763;SDS011;59602;52.142;5.408;2023-07-31T16:01:54;2.15;;;0.63;;
71763;SDS011;59602;52.142;5.408;2023-07-31T16:04:21;1.80;;;0.70;;
71763;SDS011;59602;52.142;5.408;2023-07-31T16:06:51;1.10;;;0.50;;
71763;SDS011;59602;52.142;5.408;2023-07-31T16:09:20;1.73;;;0.45;;
71763;SDS011;59602;52.142;5.408;2023-07-31T16:11:47;2.78;;;0.60;;
71763;SDS011;59602;52.142;5.408;2023-07-31T16:14:14;0.82;;;0.30;;
71763;SDS011;59602;52.142;5.408;2023-07-31T16:16:41;1.20;;;0.40;;
71763;SDS011;59602;52.142;5.408;2023-07-31T16:19:08;1.98;;;0.47;;
71763;SDS011;59602;52.142;5.408;2023-07-31T16:21:35;1.48;;;0.50;;
71763;SDS011;59602;52.142;5.408;2023-07-31T16:24:02;2.72;;;0.52;;
71763;SDS011;59602;52.142;5.408;2023-07-31T16:26:30;1.08;;;0.30;;
71763;SDS011;59602;52.142;5.408;2023-07-31T16:28:57;2.87;;;0.30;;
71763;SDS011;59602;52.142;5.408;2023-07-31T16:31:25;0.98;;;0.32;;
71763;SDS011;59602;52.142;5.408;2023-07-31T16:33:52;0.98;;;0.30;;
71763;SDS011;59602;52.142;5.408;2023-07-31T16:36:18;1.40;;;0.40;;
71763;SDS011;59602;52.142;5.408;2023-07-31T16:38:47;2.00;;;0.20;;
71763;SDS011;59602;52.142;5.408;2023-07-31T16:41:15;3.17;;;1.63;;
71763;SDS011;59602;52.142;5.408;2023-07-31T16:43:42;0.93;;;0.20;;
71763;SDS011;59602;52.142;5.408;2023-07-31T16:46:08;0.68;;;0.20;;
71763;SDS011;59602;52.142;5.408;2023-07-31T16:48:36;2.67;;;2.47;;
71763;SDS011;59602;52.142;5.408;2023-07-31T16:51:03;2.25;;;0.30;;
71763;SDS011;59602;52.142;5.408;2023-07-31T16:53:46;0.50;;;0.20;;
71763;SDS011;59602;52.142;5.408;2023-07-31T16:56:13;0.70;;;0.10;;
71763;SDS011;59602;52.142;5.408;2023-07-31T16:59:05;0.50;;;0.20;;
71763;SDS011;59602;52.142;5.408;2023-07-31T17:01:52;0.60;;;0.10;;
71763;SDS011;59602;52.142;5.408;2023-07-31T17:04:21;0.63;;;0.10;;
71763;SDS011;59602;52.142;5.408;2023-07-31T17:06:49;0.33;;;0.10;;
71763;SDS011;59602;52.142;5.408;2023-07-31T17:09:18;1.60;;;0.20;;
71763;SDS011;59602;52.142;5.408;2023-07-31T17:12:40;0.40;;;0.10;;
71763;SDS011;59602;52.142;5.408;2023-07-31T17:15:12;2.58;;;0.30;;
71763;SDS011;59602;52.142;5.408;2023-07-31T17:17:39;3.75;;;0.20;;
71763;SDS011;59602;52.142;5.408;2023-07-31T17:20:06;1.73;;;0.20;;
71763;SDS011;59602;52.142;5.408;2023-07-31T17:22:37;0.63;;;0.17;;
71763;SDS011;59602;52.142;5.408;2023-07-31T17:25:14;2.25;;;0.20;;
71763;SDS011;59602;52.142;5.408;2023-07-31T17:27:48;1.17;;;0.20;;
71763;SDS011;59602;52.142;5.408;2023-07-31T17:31:26;0.60;;;0.20;;
71763;SDS011;59602;52.142;5.408;2023-07-31T17:40:57;0.80;;;0.22;;
71763;SDS011;59602;52.142;5.408;2023-07-31T17:43:43;0.75;;;0.20;;
71763;SDS011;59602;52.142;5.408;2023-07-31T17:46:44;0.50;;;0.30;;
71763;SDS011;59602;52.142;5.408;2023-07-31T17:50:09;0.93;;;0.30;;
71763;SDS011;59602;52.142;5.408;2023-07-31T17:53:33;0.95;;;0.20;;
71763;SDS011;59602;52.142;5.408;2023-07-31T17:56:19;1.10;;;0.28;;
71763;SDS011;59602;52.142;5.408;2023-07-31T17:59:38;2.03;;;0.30;;
71763;SDS011;59602;52.142;5.408;2023-07-31T18:02:29;1.42;;;0.30;;
71763;SDS011;59602;52.142;5.408;2023-07-31T18:05:53;0.77;;;0.30;;
71763;SDS011;59602;52.142;5.408;2023-07-31T18:08:55;0.90;;;0.30;;
71763;SDS011;59602;52.142;5.408;2023-07-31T18:11:40;1.75;;;0.20;;
71763;SDS011;59602;52.142;5.408;2023-07-31T18:14:29;1.83;;;0.50;;
71763;SDS011;59602;52.142;5.408;2023-07-31T18:28:40;1.15;;;0.30;;
71763;SDS011;59602;52.142;5.408;2023-07-31T18:31:38;1.90;;;0.35;;
71763;SDS011;59602;52.142;5.408;2023-07-31T18:35:18;1.17;;;0.50;;
71763;SDS011;59602;52.142;5.408;2023-07-31T18:45:27;2.08;;;0.50;;
71763;SDS011;59602;52.142;5.408;2023-07-31T19:57:32;3.20;;;0.60;;
71763;SDS011;59602;52.142;5.408;2023-07-31T20:05:19;3.67;;;0.50;;
71763;SDS011;59602;52.142;5.408;2023-07-31T20:15:47;3.30;;;0.80;;
71763;SDS011;59602;52.142;5.408;2023-07-31T20:23:15;2.07;;;0.67;;
71763;SDS011;59602;52.142;5.408;2023-07-31T20:25:51;3.17;;;0.70;;
71763;SDS011;59602;52.142;5.408;2023-07-31T20:32:42;2.20;;;0.38;;
71763;SDS011;59602;52.142;5.408;2023-07-31T20:36:05;2.08;;;0.50;;
71763;SDS011;59602;52.142;5.408;2023-07-31T20:39:10;3.93;;;0.60;;
71763;SDS011;59602;52.142;5.408;2023-07-31T21:25:25;3.05;;;0.40;;
71763;SDS011;59602;52.142;5.408;2023-07-31T22:04:30;2.45;;;0.40;;
71763;SDS011;59602;52.142;5.408;2023-07-31T22:08:01;4.75;;;0.70;;
71763;SDS011;59602;52.142;5.408;2023-07-31T22:39:52;3.40;;;0.30;;
71763;SDS011;59602;52.142;5.408;2023-07-31T22:43:16;6.43;;;0.47;;
71763;SDS011;59602;52.142;5.408;2023-07-31T22:54:23;1.75;;;0.40;;
71763;SDS011;59602;52.142;5.408;2023-07-31T23:00:28;3.47;;;0.60;;
71763;SDS011;59602;52.142;5.408;2023-07-31T23:03:02;2.65;;;0.60;;
71763;SDS011;59602;52.142;5.408;2023-07-31T23:05:46;3.78;;;0.95;;
71763;SDS011;59602;52.142;5.408;2023-07-31T23:08:52;3.08;;;0.70;;
71763;SDS011;59602;52.142;5.408;2023-07-31T23:22:35;3.25;;;0.65;;
71763;SDS011;59602;52.142;5.408;2023-07-31T23:25:59;3.85;;;0.65;;
71763;SDS011;59602;52.142;5.408;2023-07-31T23:29:16;2.47;;;0.60;;
71763;SDS011;59602;52.142;5.408;2023-07-31T23:34:12;3.30;;;0.70;;